createdAt,value
2019-05-13T00:00:36.275Z,103874.89
2019-05-13T00:03:07.950Z,103874.80
2019-05-13T00:05:39.712Z,103874.28
2019-05-13T00:08:13.749Z,103871.48
2019-05-13T00:10:45.758Z,103869.50
2019-05-13T00:13:17.345Z,103873.25
2019-05-13T00:15:50.978Z,103877.64
2019-05-13T00:18:23.522Z,103878.61
2019-05-13T00:20:55.277Z,103880.05
2019-05-13T00:23:27.031Z,103884.94
2019-05-13T00:25:58.828Z,103890.05
2019-05-13T00:28:30.652Z,103896.67
2019-05-13T00:31:03.470Z,103896.20
2019-05-13T00:33:35.427Z,103893.36
2019-05-13T00:36:07.024Z,103893.16
2019-05-13T00:38:38.569Z,103892.55
2019-05-13T00:41:10.880Z,103891.98
2019-05-13T00:43:44.432Z,103890.09
2019-05-13T00:46:15.828Z,103894.32
2019-05-13T00:48:47.773Z,103892.99
2019-05-13T00:51:19.852Z,103892.80
2019-05-13T00:53:53.524Z,103888.20
2019-05-13T00:56:25.691Z,103886.53
2019-05-13T00:58:57.252Z,103885.80
2019-05-13T01:01:29.006Z,103886.10
2019-05-13T01:04:00.594Z,103884.27
2019-05-13T01:06:34.121Z,103888.91
2019-05-13T01:09:07.308Z,103891.97
2019-05-13T01:11:39.101Z,103887.94
2019-05-13T01:14:11.602Z,103896.23
2019-05-13T01:16:44.294Z,103893.34
2019-05-13T01:19:16.159Z,103888.91
2019-05-13T01:21:49.557Z,103894.76
2019-05-13T01:24:21.091Z,103884.07
2019-05-13T01:26:54.137Z,103888.48
2019-05-13T01:29:26.286Z,103885.58
2019-05-13T01:31:57.865Z,103889.34
2019-05-13T01:34:29.663Z,103894.65
2019-05-13T01:37:03.991Z,103892.65
2019-05-13T01:39:35.180Z,103892.80
2019-05-13T01:42:07.087Z,103893.50
2019-05-13T01:44:38.961Z,103895.17
2019-05-13T01:47:10.570Z,103895.67
2019-05-13T01:49:44.015Z,103892.41
2019-05-13T01:52:15.630Z,103893.11
2019-05-13T01:54:47.275Z,103886.22
2019-05-13T01:57:20.668Z,103892.84
2019-05-13T01:59:53.773Z,103884.78
2019-05-13T02:02:25.908Z,103889.45
2019-05-13T02:04:57.483Z,103895.56
2019-05-13T02:07:29.325Z,103896.84
2019-05-13T02:10:04.116Z,103889.88
2019-05-13T02:12:35.472Z,103887.02
2019-05-13T02:15:07.923Z,103886.55
2019-05-13T02:17:39.759Z,103881.95
2019-05-13T02:20:14.474Z,103879.11
2019-05-13T02:22:44.860Z,103885.46
2019-05-13T02:25:16.446Z,103882.17
2019-05-13T02:27:48.318Z,103873.23
2019-05-13T02:30:19.939Z,103877.36
2019-05-13T02:32:53.177Z,103881.73
2019-05-13T02:35:24.917Z,103886.44
2019-05-13T02:38:15.929Z,103882.58
2019-05-13T02:40:32.477Z,103884.65
2019-05-13T02:43:03.311Z,103885.27
2019-05-13T02:45:35.357Z,103884.24
2019-05-13T02:48:07.084Z,103883.55
2019-05-13T02:50:38.984Z,103887.78
2019-05-13T02:53:13.592Z,103888.22
2019-05-13T02:55:44.375Z,103890.87
2019-05-13T02:58:16.046Z,103898.63
2019-05-13T03:00:47.604Z,103901.34
2019-05-13T03:03:23.184Z,103904.08
2019-05-13T03:05:54.119Z,103906.58
2019-05-13T03:08:39.335Z,103904.51
2019-05-13T03:11:02.962Z,103908.95
2019-05-13T03:13:34.023Z,103911.25
2019-05-13T03:16:32.445Z,103898.66
2019-05-13T03:19:03.801Z,103904.40
2019-05-13T03:21:35.685Z,103906.94
2019-05-13T03:24:07.283Z,103910.64
2019-05-13T03:26:42.785Z,103916.05
2019-05-13T03:29:14.376Z,103913.40
2019-05-13T03:31:47.098Z,103917.50
2019-05-13T03:34:18.994Z,103918.75
2019-05-13T03:36:56.609Z,103918.28
2019-05-13T03:39:24.518Z,103918.69
2019-05-13T03:41:57.620Z,103926.34
2019-05-13T03:44:33.024Z,103930.81
2019-05-13T03:47:05.348Z,103925.43
2019-05-13T03:49:38.023Z,103931.16
2019-05-13T03:52:13.260Z,103933.56
2019-05-13T03:54:44.753Z,103930.22
2019-05-13T03:57:16.381Z,103937.33
2019-05-13T03:59:52.417Z,103932.90
2019-05-13T04:02:22.891Z,103937.47
2019-05-13T04:04:58.328Z,103942.89
2019-05-13T04:07:27.930Z,103946.17
2019-05-13T04:10:03.021Z,103949.16
2019-05-13T04:12:33.541Z,103951.27
2019-05-13T04:15:05.787Z,103949.97
2019-05-13T04:17:37.345Z,103946.66
2019-05-13T04:20:12.611Z,103942.38
2019-05-13T04:22:43.459Z,103945.36
2019-05-13T04:25:15.333Z,103941.56
2019-05-13T04:27:47.039Z,103927.38
2019-05-13T04:30:22.094Z,103926.34
2019-05-13T04:32:53.398Z,103924.50
2019-05-13T04:35:25.824Z,103929.67
2019-05-13T04:37:57.429Z,103929.35
2019-05-13T04:40:32.955Z,103930.55
2019-05-13T04:43:03.281Z,103933.91
2019-05-13T04:45:35.253Z,103937.97
2019-05-13T04:48:06.898Z,103947.74
2019-05-13T04:50:38.950Z,103948.61
2019-05-13T04:53:13.684Z,103949.02
2019-05-13T04:55:45.962Z,103945.16
2019-05-13T04:58:17.669Z,103936.59
2019-05-13T05:01:23.439Z,103945.88
2019-05-13T05:04:30.508Z,103946.55
2019-05-13T05:07:55.574Z,103954.61
2019-05-13T05:11:22.189Z,103946.06
2019-05-13T05:14:32.538Z,103949.83
2019-05-13T05:18:02.875Z,103949.78
2019-05-13T05:20:58.586Z,103952.90
2019-05-13T05:24:25.797Z,103950.06
2019-05-13T05:28:03.592Z,103947.55
2019-05-13T05:31:32.588Z,103951.80
2019-05-13T05:34:58.220Z,103958.34
2019-05-13T05:38:31.809Z,103962.67
2019-05-13T05:41:04.759Z,103958.97
2019-05-13T05:43:44.860Z,103968.87
2019-05-13T05:46:14.886Z,103968.14
2019-05-13T05:48:50.125Z,103972.15
2019-05-13T05:51:22.935Z,103980.88
2019-05-13T05:53:56.703Z,103985.35
2019-05-13T05:56:32.549Z,103976.06
2019-05-13T05:59:05.369Z,103986.44
2019-05-13T06:01:37.541Z,103986.72
2019-05-13T06:04:12.610Z,103989.20
2019-05-13T06:06:44.224Z,103987.00
2019-05-13T06:09:15.950Z,103988.27
2019-05-13T06:11:48.058Z,103981.50
2019-05-13T06:14:21.768Z,103984.12
2019-05-13T06:16:56.031Z,103978.33
2019-05-13T06:19:31.930Z,103982.25
2019-05-13T06:22:03.329Z,103994.72
2019-05-13T06:24:34.860Z,103985.06
2019-05-13T06:27:06.694Z,103989.06
2019-05-13T06:29:42.358Z,103992.70
2019-05-13T06:32:21.424Z,103993.32
2019-05-13T06:34:47.462Z,103991.00
2019-05-13T06:37:21.118Z,103988.47
2019-05-13T06:39:52.365Z,103996.58
2019-05-13T06:42:24.129Z,103981.38
2019-05-13T06:44:56.131Z,103990.23
2019-05-13T06:47:28.053Z,103985.11
2019-05-13T06:50:03.006Z,103986.08
2019-05-13T06:52:33.404Z,103984.39
2019-05-13T06:55:05.444Z,103982.10
2019-05-13T06:57:37.212Z,103982.88
2019-05-13T07:00:12.002Z,103985.59
2019-05-13T07:02:42.905Z,103983.84
2019-05-13T07:05:14.447Z,103981.33
2019-05-13T07:07:45.959Z,103985.14
2019-05-13T07:10:17.601Z,103978.22
2019-05-13T07:12:51.663Z,103984.96
2019-05-13T07:15:22.591Z,103993.34
2019-05-13T07:17:54.038Z,103986.38
2019-05-13T07:20:25.590Z,103996.34
2019-05-13T07:23:01.819Z,103986.52
2019-05-13T07:25:33.465Z,104003.25
2019-05-13T07:28:05.943Z,103999.22
2019-05-13T07:30:42.433Z,104002.09
2019-05-13T07:33:14.164Z,103995.85
2019-05-13T07:35:46.729Z,104012.75
2019-05-13T07:38:22.021Z,104014.88
2019-05-13T07:41:02.946Z,104016.67
2019-05-13T07:43:35.572Z,104011.16
2019-05-13T07:46:07.149Z,104010.14
2019-05-13T07:48:41.432Z,104014.55
2019-05-13T07:51:12.303Z,104011.95
2019-05-13T07:53:43.974Z,104013.14
2019-05-13T07:56:17.073Z,104014.98
2019-05-13T07:58:48.579Z,104008.57
2019-05-13T08:01:22.069Z,104016.78
2019-05-13T08:03:53.512Z,104010.98
2019-05-13T08:06:25.045Z,104020.81
2019-05-13T08:08:56.768Z,104018.03
2019-05-13T08:11:28.204Z,104017.86
2019-05-13T08:14:01.782Z,104018.84
2019-05-13T08:16:34.467Z,104024.69
2019-05-13T08:19:06.018Z,104021.42
2019-05-13T08:21:37.798Z,104019.61
2019-05-13T08:24:11.759Z,104027.28
2019-05-13T08:26:45.107Z,104036.04
2019-05-13T08:29:15.811Z,104027.45
2019-05-13T08:31:47.721Z,104026.57
2019-05-13T08:34:22.390Z,104027.41
2019-05-13T08:36:52.559Z,104022.41
2019-05-13T08:39:26.858Z,104020.56
2019-05-13T08:42:11.716Z,104030.28
2019-05-13T08:44:32.256Z,104032.36
2019-05-13T08:47:04.282Z,104033.48
2019-05-13T08:49:35.784Z,104038.12
2019-05-13T08:52:07.498Z,104040.46
2019-05-13T08:54:41.593Z,104036.52
2019-05-13T08:57:12.439Z,104039.80
2019-05-13T08:59:45.252Z,104040.97
2019-05-13T09:02:16.860Z,104030.03
2019-05-13T09:04:48.494Z,104039.09
2019-05-13T09:07:23.633Z,104023.36
2019-05-13T09:09:53.989Z,104025.66
2019-05-13T09:12:32.204Z,104031.60
2019-05-13T09:14:58.994Z,104023.46
2019-05-13T09:17:31.878Z,104028.97
2019-05-13T09:20:06.059Z,104031.96
2019-05-13T09:22:37.554Z,104036.87
2019-05-13T09:25:09.100Z,104037.80
2019-05-13T09:27:42.481Z,104046.05
2019-05-13T09:30:13.989Z,104048.42
2019-05-13T09:32:45.463Z,104045.14
2019-05-13T09:35:17.220Z,104049.66
2019-05-13T09:37:51.439Z,104040.25
2019-05-13T09:40:22.441Z,104035.58
2019-05-13T09:42:55.359Z,104042.28
2019-05-13T09:45:27.533Z,104036.36
2019-05-13T09:48:01.447Z,104038.30
2019-05-13T09:50:36.070Z,104041.94
2019-05-13T09:53:05.879Z,104037.48
2019-05-13T09:55:37.440Z,104043.49
2019-05-13T09:58:11.864Z,104045.41
2019-05-13T10:00:43.160Z,104033.48
2019-05-13T10:03:14.996Z,104028.43
2019-05-13T10:05:46.511Z,104029.16
2019-05-13T10:08:18.003Z,104030.29
2019-05-13T10:10:49.627Z,104026.34
2019-05-13T10:13:23.093Z,104024.50
2019-05-13T10:15:56.573Z,104022.23
2019-05-13T10:18:28.301Z,104018.75
2019-05-13T10:21:00.734Z,104003.94
2019-05-13T10:23:33.472Z,104016.19
2019-05-13T10:26:08.597Z,104014.28
2019-05-13T10:28:42.697Z,104010.00
2019-05-13T10:31:14.416Z,104014.48
2019-05-13T10:33:45.915Z,104009.44
2019-05-13T10:36:17.878Z,104015.58
2019-05-13T10:38:51.951Z,104016.59
2019-05-13T10:41:22.711Z,104015.71
2019-05-13T10:43:54.238Z,104007.58
2019-05-13T10:46:26.019Z,104012.20
2019-05-13T10:48:57.727Z,104013.68
2019-05-13T10:51:32.485Z,103998.94
2019-05-13T10:54:02.952Z,104000.55
2019-05-13T10:56:34.473Z,103986.00
2019-05-13T10:59:05.962Z,103989.71
2019-05-13T11:01:38.035Z,103983.33
2019-05-13T11:04:13.350Z,103977.04
2019-05-13T11:06:42.969Z,103980.66
2019-05-13T11:09:14.662Z,103975.69
2019-05-13T11:11:46.318Z,103975.76
2019-05-13T11:14:17.831Z,103971.68
2019-05-13T11:16:52.395Z,103967.66
2019-05-13T11:19:23.351Z,103970.80
2019-05-13T11:21:55.011Z,103967.28
2019-05-13T11:24:26.524Z,103978.58
2019-05-13T11:26:57.993Z,103971.97
2019-05-13T11:29:32.310Z,103970.70
2019-05-13T11:32:03.054Z,103974.74
2019-05-13T11:34:35.397Z,103961.30
2019-05-13T11:37:07.505Z,103971.03
2019-05-13T11:39:39.008Z,103971.24
2019-05-13T11:42:13.575Z,103974.05
2019-05-13T11:44:44.981Z,103974.35
2019-05-13T11:47:16.590Z,103971.64
2019-05-13T11:49:48.404Z,103961.58
2019-05-13T11:52:21.864Z,103944.74
2019-05-13T11:54:53.858Z,103937.11
2019-05-13T11:57:25.695Z,103954.13
2019-05-13T11:59:57.268Z,103952.71
2019-05-13T12:02:32.669Z,103947.98
2019-05-13T12:05:04.189Z,103954.87
2019-05-13T12:07:35.926Z,103953.42
2019-05-13T12:10:07.724Z,103950.95
2019-05-13T12:12:39.225Z,103939.35
2019-05-13T12:15:38.898Z,103952.02
2019-05-13T12:17:44.427Z,103937.63
2019-05-13T12:20:15.992Z,103948.75
2019-05-13T12:22:47.825Z,103948.52
2019-05-13T12:25:22.446Z,103941.06
2019-05-13T12:27:52.786Z,103941.23
2019-05-13T12:30:24.282Z,103931.03
2019-05-13T12:32:55.875Z,103936.02
2019-05-13T12:35:28.003Z,103927.00
2019-05-13T12:37:59.818Z,103934.17
2019-05-13T12:40:33.740Z,103937.67
2019-05-13T12:43:06.876Z,103932.48
2019-05-13T12:45:38.632Z,103932.81
2019-05-13T12:48:13.656Z,103935.45
2019-05-13T12:50:43.579Z,103930.15
2019-05-13T12:53:15.117Z,103935.93
2019-05-13T12:55:52.707Z,103923.56
2019-05-13T12:58:23.309Z,103925.59
2019-05-13T13:00:53.606Z,103918.24
2019-05-13T13:03:25.403Z,103904.91
2019-05-13T13:06:21.012Z,103916.19
2019-05-13T13:08:43.080Z,103913.41
2019-05-13T13:11:03.427Z,103917.53
2019-05-13T13:13:57.488Z,103911.73
2019-05-13T13:16:12.678Z,103915.88
2019-05-13T13:18:43.798Z,103906.21
2019-05-13T13:21:15.477Z,103909.03
2019-05-13T13:23:46.980Z,103915.70
2019-05-13T13:26:21.510Z,103897.72
2019-05-13T13:28:55.754Z,103905.28
2019-05-13T13:31:25.580Z,103889.98
2019-05-13T13:34:06.947Z,103896.56
2019-05-13T13:36:33.515Z,103896.09
2019-05-13T13:39:06.568Z,103904.39
2019-05-13T13:41:38.102Z,103910.09
2019-05-13T13:44:12.254Z,103898.86
2019-05-13T13:46:49.484Z,103903.33
2019-05-13T13:49:17.678Z,103897.66
2019-05-13T13:51:49.448Z,103894.02
2019-05-13T13:54:22.441Z,103893.53
2019-05-13T13:56:56.249Z,103890.27
2019-05-13T13:59:27.961Z,103894.73
2019-05-13T14:02:05.053Z,103893.81
2019-05-13T14:04:32.874Z,103895.59
2019-05-13T14:09:38.023Z,103900.64
2019-05-13T14:12:11.357Z,103893.16
2019-05-13T14:14:43.095Z,103888.75
2019-05-13T14:17:14.638Z,103892.97
2019-05-13T14:19:46.166Z,103882.42
2019-05-13T14:22:17.693Z,103886.20
2019-05-13T14:24:51.854Z,103880.30
2019-05-13T14:27:23.003Z,103880.52
2019-05-13T14:29:54.979Z,103870.28
2019-05-13T14:32:26.557Z,103872.16
2019-05-13T14:34:58.642Z,103867.16
2019-05-13T14:37:31.788Z,103860.27
2019-05-13T14:40:03.894Z,103855.60
2019-05-13T14:42:35.593Z,103854.75
2019-05-13T14:45:07.867Z,103852.56
2019-05-13T14:47:39.641Z,103852.50
2019-05-13T14:50:12.337Z,103845.19
2019-05-13T14:52:43.967Z,103846.20
2019-05-13T14:55:15.974Z,103848.48
2019-05-13T14:57:47.737Z,103835.91
2019-05-13T15:00:21.914Z,103844.00
2019-05-13T15:02:53.150Z,103830.39
2019-05-13T15:05:24.727Z,103828.69
2019-05-13T15:07:56.715Z,103824.11
2019-05-13T15:10:28.540Z,103828.20
2019-05-13T15:13:03.028Z,103826.00
2019-05-13T15:15:34.857Z,103825.00
2019-05-13T15:18:06.596Z,103823.73
2019-05-13T15:20:38.303Z,103822.25
2019-05-13T15:23:11.953Z,103820.98
2019-05-13T15:25:43.220Z,103820.67
2019-05-13T15:28:14.847Z,103822.42
2019-05-13T15:30:47.998Z,103816.50
2019-05-13T15:33:21.517Z,103816.16
2019-05-13T15:35:53.840Z,103808.51
2019-05-13T15:38:25.446Z,103810.72
2019-05-13T15:40:57.414Z,103814.41
2019-05-13T15:43:31.714Z,103806.36
2019-05-13T15:46:02.735Z,103800.72
2019-05-13T15:48:34.682Z,103796.55
2019-05-13T15:51:06.728Z,103798.97
2019-05-13T15:53:38.416Z,103796.37
2019-05-13T15:56:12.384Z,103792.78
2019-05-13T15:58:44.636Z,103787.52
2019-05-13T16:01:16.467Z,103795.55
2019-05-13T16:03:48.632Z,103794.78
2019-05-13T16:06:20.841Z,103786.50
2019-05-13T16:08:52.624Z,103791.50
2019-05-13T16:11:24.388Z,103783.39
2019-05-13T16:13:55.974Z,103784.06
2019-05-13T16:16:28.228Z,103789.33
2019-05-13T16:19:00.045Z,103786.42
2019-05-13T16:21:32.160Z,103783.27
2019-05-13T16:24:04.364Z,103778.53
2019-05-13T16:26:35.972Z,103780.78
2019-05-13T16:29:07.990Z,103772.36
2019-05-13T16:31:41.570Z,103776.13
2019-05-13T16:34:13.427Z,103771.70
2019-05-13T16:36:45.480Z,103771.51
2019-05-13T16:39:17.087Z,103767.91
2019-05-13T16:41:48.752Z,103771.36
2019-05-13T16:44:22.487Z,103773.59
2019-05-13T16:46:55.686Z,103774.02
2019-05-13T16:49:27.277Z,103768.42
2019-05-13T16:51:59.553Z,103762.56
2019-05-13T16:54:32.809Z,103766.30
2019-05-13T16:57:04.835Z,103748.27
2019-05-13T16:59:38.326Z,103751.36
2019-05-13T17:02:12.608Z,103753.61
2019-05-13T17:04:44.272Z,103757.22
2019-05-13T17:07:16.063Z,103748.19
2019-05-13T17:09:47.984Z,103751.14
2019-05-13T17:12:21.265Z,103741.39
2019-05-13T17:14:53.551Z,103744.66
2019-05-13T17:17:25.210Z,103746.81
2019-05-13T17:19:57.088Z,103752.51
2019-05-13T17:22:31.668Z,103742.55
2019-05-13T17:25:03.519Z,103740.34
2019-05-13T17:27:35.206Z,103741.89
2019-05-13T17:30:07.675Z,103749.19
2019-05-13T17:32:39.505Z,103750.94
2019-05-13T17:35:11.718Z,103743.27
2019-05-13T17:37:43.544Z,103741.11
2019-05-13T17:40:15.713Z,103741.17
2019-05-13T17:42:47.290Z,103743.42
2019-05-13T17:45:19.127Z,103739.20
2019-05-13T17:47:52.066Z,103747.73
2019-05-13T17:50:24.547Z,103750.86
2019-05-13T17:52:56.346Z,103747.75
2019-05-13T17:55:28.085Z,103744.65
2019-05-13T17:58:01.424Z,103735.22
2019-05-13T18:00:33.568Z,103739.83
2019-05-13T18:03:05.281Z,103736.20
2019-05-13T18:05:37.183Z,103738.30
2019-05-13T18:08:11.073Z,103736.20
2019-05-13T18:10:42.251Z,103742.38
2019-05-13T18:13:13.862Z,103733.73
2019-05-13T18:15:45.506Z,103728.48
2019-05-13T18:18:17.304Z,103727.86
2019-05-13T18:20:48.966Z,103728.28
2019-05-13T18:23:20.483Z,103732.70
2019-05-13T18:25:52.141Z,103731.34
2019-05-13T18:28:30.561Z,103728.44
2019-05-13T18:30:57.333Z,103730.76
2019-05-13T18:33:28.947Z,103724.39
2019-05-13T18:36:01.814Z,103729.89
2019-05-13T18:38:34.612Z,103728.94
2019-05-13T18:41:06.511Z,103735.50
2019-05-13T18:43:38.068Z,103741.39
2019-05-13T18:46:12.203Z,103732.39
2019-05-13T18:48:58.169Z,103730.02
2019-05-13T18:51:16.461Z,103729.48
2019-05-13T18:53:47.996Z,103732.83
2019-05-13T18:56:21.839Z,103728.11
2019-05-13T18:58:53.494Z,103729.08
2019-05-13T19:01:25.410Z,103727.90
2019-05-13T19:03:56.946Z,103730.27
2019-05-13T19:06:31.468Z,103735.06
2019-05-13T19:09:02.350Z,103726.83
2019-05-13T19:11:34.566Z,103726.00
2019-05-13T19:14:06.374Z,103738.30
2019-05-13T19:16:38.084Z,103742.98
2019-05-13T19:19:13.251Z,103739.58
2019-05-13T19:21:43.080Z,103739.25
2019-05-13T19:24:15.000Z,103737.41
2019-05-13T19:26:46.898Z,103736.96
2019-05-13T19:29:18.555Z,103737.36
2019-05-13T19:31:51.060Z,103741.34
2019-05-13T19:34:22.734Z,103742.56
2019-05-13T19:36:54.357Z,103738.94
2019-05-13T19:39:25.937Z,103745.50
2019-05-13T19:41:59.140Z,103743.72
2019-05-13T19:44:31.524Z,103745.83
2019-05-13T19:47:03.747Z,103752.05
2019-05-13T19:49:37.322Z,103750.48
2019-05-13T19:52:11.956Z,103756.70
2019-05-13T19:54:43.319Z,103759.38
2019-05-13T19:57:14.930Z,103761.10
2019-05-13T19:59:46.492Z,103761.41
2019-05-13T20:02:18.328Z,103757.66
2019-05-13T20:04:51.834Z,103763.00
2019-05-13T20:07:23.711Z,103762.55
2019-05-13T20:09:55.632Z,103766.80
2019-05-13T20:12:27.364Z,103760.50
2019-05-13T20:15:01.207Z,103760.30
2019-05-13T20:17:32.567Z,103756.62
2019-05-13T20:20:04.529Z,103759.78
2019-05-13T20:22:38.428Z,103760.42
2019-05-13T20:25:12.999Z,103695.27
2019-05-13T20:27:43.998Z,103760.17
2019-05-13T20:30:16.659Z,103756.52
2019-05-13T20:32:48.314Z,103756.21
2019-05-13T20:35:21.977Z,103757.81
2019-05-13T20:37:53.778Z,103757.78
2019-05-13T20:40:25.335Z,103747.84
2019-05-13T20:42:57.031Z,103748.02
2019-05-13T20:45:31.109Z,103743.02
2019-05-13T20:48:02.132Z,103742.20
2019-05-13T20:50:33.928Z,103737.33
2019-05-13T20:53:05.861Z,103735.97
2019-05-13T20:55:41.494Z,103733.72
2019-05-13T20:58:13.984Z,103733.11
2019-05-13T21:00:45.676Z,103734.63
2019-05-13T21:03:18.867Z,103730.40
2019-05-13T21:05:52.049Z,103731.42
2019-05-13T21:08:24.035Z,103723.96
2019-05-13T21:10:56.839Z,103727.50
2019-05-13T21:13:28.706Z,103722.22
2019-05-13T21:16:02.230Z,103726.41
2019-05-13T21:18:33.780Z,103732.50
2019-05-13T21:21:05.420Z,103724.77
2019-05-13T21:23:37.027Z,103729.16
2019-05-13T21:26:08.652Z,103733.72
2019-05-13T21:28:41.863Z,103733.79
2019-05-13T21:31:13.835Z,103719.23
2019-05-13T21:33:45.611Z,103721.50
2019-05-13T21:36:17.176Z,103721.33
2019-05-13T21:38:48.736Z,103716.73
2019-05-13T21:41:21.154Z,103728.09
2019-05-13T21:43:53.045Z,103721.80
2019-05-13T21:46:24.930Z,103717.42
2019-05-13T21:48:58.419Z,103718.69
2019-05-13T21:51:31.991Z,103718.04
2019-05-13T21:54:03.648Z,103720.54
2019-05-13T21:56:35.334Z,103719.25
2019-05-13T21:59:07.009Z,103721.80
2019-05-13T22:01:41.460Z,103721.61
2019-05-13T22:04:12.612Z,103723.32
2019-05-13T22:06:44.271Z,103728.48
2019-05-13T22:09:15.976Z,103724.42
2019-05-13T22:11:47.752Z,103720.55
2019-05-13T22:14:19.359Z,103723.55
2019-05-13T22:16:51.750Z,103722.38
2019-05-13T22:19:24.539Z,103723.32
2019-05-13T22:21:56.150Z,103718.00
2019-05-13T22:24:27.789Z,103718.92
2019-05-13T22:27:01.682Z,103716.30
2019-05-13T22:29:32.846Z,103720.81
2019-05-13T22:32:04.495Z,103716.63
2019-05-13T22:34:36.016Z,103717.44
2019-05-13T22:37:11.696Z,103714.24
2019-05-13T22:39:43.992Z,103711.32
2019-05-13T22:42:17.635Z,103719.66
2019-05-13T22:44:49.327Z,103713.14
2019-05-13T22:47:22.076Z,103720.81
2019-05-13T22:49:56.806Z,103723.31
2019-05-13T22:52:27.393Z,103724.56
2019-05-13T22:54:59.152Z,103720.20
2019-05-13T22:57:31.297Z,103715.98
2019-05-13T23:00:03.426Z,103714.28
2019-05-13T23:02:36.619Z,103714.98
2019-05-13T23:05:11.107Z,103710.16
2019-05-13T23:07:42.341Z,103710.78
2019-05-13T23:10:14.082Z,103705.52
2019-05-13T23:12:45.715Z,103714.02
2019-05-13T23:15:17.291Z,103709.77
2019-05-13T23:17:51.890Z,103711.10
2019-05-13T23:20:23.166Z,103714.59
2019-05-13T23:22:58.250Z,103711.94
2019-05-13T23:25:31.836Z,103714.22
2019-05-13T23:28:03.253Z,103712.16
2019-05-13T23:30:34.974Z,103714.77
2019-05-13T23:33:06.831Z,103703.74
2019-05-13T23:35:38.913Z,103706.85
2019-05-13T23:38:10.569Z,103711.16
2019-05-13T23:40:43.987Z,103703.28
2019-05-13T23:43:15.928Z,103703.33
2019-05-13T23:45:47.504Z,103703.91
2019-05-13T23:48:21.397Z,103707.64
2019-05-13T23:50:52.390Z,103702.53
2019-05-13T23:53:23.936Z,103697.55
2019-05-13T23:55:55.490Z,103698.80
2019-05-13T23:58:27.044Z,103706.39
